Bochem Mumbai — VRHJ8 — position and weather

sailwx.info

Track history (hours):
 
Tides and Currents Weather Stations Pressure Air Temp Water Temp Dewpoint Dewpoint Depression Visibility Wind Speed Wind Dir Waves Ship Positions

Bochem Mumbai

Last reported at 2017-May-26 18:51 UTC. Time now 2017-May-27 21:19 UTC.
Position N 28°39' W 013°14'.

Length 171 m; draft 11.1 m.

Type: Ship (hazmat cat A). MMSI: 477932400.

Date/timePositionNaut miles runAvg speedWind from/ knotsBaromVisibWave heightAir tempDewpointWater temp
2017-May-26 18:51N 28°39' W 013°14'411.6
2017-May-26 18:30N 28°36' W 013°17'611.7
2017-May-26 18:00N 28°31' W 013°21'712.2
2017-May-26 17:28N 28°26' W 013°25'612.4
2017-May-26 16:59N 28°21' W 013°29'1312.2
2017-May-26 15:54N 28°10' W 013°38'511.9
2017-May-26 15:30N 28°06' W 013°41'712.1
2017-May-26 14:57N 28°01' W 013°46'512.3
2017-May-26 14:30N 27°57' W 013°50'1312.6
2017-May-26 13:29N 27°47' W 013°59'612.7
2017-May-26 12:59N 27°42' W 014°03'  
2017-May-23 14:18N 14°38' W 017°32'1011.8
2017-May-23 13:30N 14°33' W 017°24'7 9.7
2017-May-23 12:46N 14°39' W 017°23'310.1
2017-May-23 12:30N 14°42' W 017°21'1 0.3
2017-May-23 10:07N 14°43' W 017°21'0 0.0
2017-May-23 09:49N 14°43' W 017°21'0 0.0
2017-May-23 09:13N 14°43' W 017°21'0 0.0
2017-May-22 21:13N 14°43' W 017°21'0 0.0
2017-May-22 20:55N 14°43' W 017°21'0 0.0
2017-May-22 16:01N 14°43' W 017°21'0 0.0
2017-May-22 15:55N 14°43' W 017°21'0 0.0
2017-May-22 15:10N 14°43' W 017°21'0 0.0
2017-May-22 11:37N 14°43' W 017°21'0 0.0
2017-May-22 11:07N 14°43' W 017°21'0 0.0
2017-May-22 09:19N 14°43' W 017°21'0 0.0
2017-May-22 06:07N 14°43' W 017°21'0 0.0
2017-May-22 00:46N 14°43' W 017°21'0 0.0
2017-May-22 00:25N 14°43' W 017°21'0 0.0
2017-May-21 22:19N 14°43' W 017°21'0 0.0
2017-May-21 13:58N 14°43' W 017°21'0 0.0
2017-May-21 13:25N 14°43' W 017°21'0 0.0
2017-May-21 12:19N 14°43' W 017°21'0 0.0
2017-May-21 11:49N 14°43' W 017°21'0 0.0
2017-May-21 11:13N 14°43' W 017°21'0 0.0
2017-May-21 10:55N 14°43' W 017°21'0 0.0
2017-May-21 01:16N 14°43' W 017°21'0 0.0
2017-May-21 00:49N 14°43' W 017°21'0 0.0
2017-May-20 23:25N 14°43' W 017°21'0 0.0
2017-May-20 21:55N 14°43' W 017°21'0 0.0
2017-May-20 21:19N 14°43' W 017°21'0 0.0
2017-May-20 16:19N 14°43' W 017°21'0 0.0
2017-May-20 15:49N 14°43' W 017°21'0 0.0
2017-May-20 15:22N 14°43' W 017°21'0 0.0
2017-May-20 14:07N 14°43' W 017°21'0 0.0
2017-May-20 13:22N 14°43' W 017°21'0 0.0
2017-May-20 12:49N 14°43' W 017°21'0 0.2
2017-May-20 12:30N 14°43' W 017°21'0 1.0
2017-May-20 12:00N 14°42' W 017°22'2 4.7
2017-May-20 11:31N 14°40' W 017°23'2 3.9
2017-May-20 11:00N 14°39' W 017°23'3 6.1
2017-May-20 10:30N 14°36' W 017°23'5 9.8
2017-May-20 10:00N 14°34' W 017°28'  
2017-May-17 21:30N 27°39' W 015°15'814.7
2017-May-17 20:59N 27°46' W 015°12'714.8
2017-May-17 20:30N 27°52' W 015°09'714.2
2017-May-17 20:00N 27°59' W 015°05'714.1
2017-May-17 19:30N 28°05' W 015°02'714.3
2017-May-17 19:00N 28°12' W 014°60'714.2
2017-May-17 18:30N 28°19' W 014°57'714.0
2017-May-17 18:00N 28°25' W 014°55'713.8
2017-May-17 17:30N 28°32' W 014°53'713.7
2017-May-17 16:59N 28°39' W 014°51'613.5
2017-May-17 16:30N 28°45' W 014°50'713.4
2017-May-17 16:00N 28°52' W 014°48'713.5
2017-May-17 15:30N 28°58' W 014°46'713.5
2017-May-17 15:00N 29°05' W 014°44'1313.4
2017-May-17 14:01N 29°18' W 014°40'713.4
2017-May-17 13:31N 29°24' W 014°38'713.5
2017-May-17 13:00N 29°31' W 014°36'713.5
2017-May-17 12:30N 29°37' W 014°34'713.3
2017-May-17 12:00N 29°44' W 014°33'1113.4
2017-May-17 11:12N 29°54' W 014°29'313.7
2017-May-17 11:00N 29°57' W 014°29'713.6
2017-May-17 10:30N 30°03' W 014°27'713.7
2017-May-17 09:59N 30°11' W 014°24'6213.8
2017-May-17 05:30N 31°11' W 014°08'5013.9
2017-May-17 01:54N 31°59' W 013°54'614.0
2017-May-17 01:30N 32°05' W 013°52'713.9
2017-May-17 01:00N 32°12' W 013°51'714.0
2017-May-17 00:30N 32°18' W 013°49'713.7
2017-May-17 00:00N 32°25' W 013°47'713.8
2017-May-16 23:30N 32°32' W 013°46'713.8
2017-May-16 23:00N 32°39' W 013°44'713.8
2017-May-16 22:30N 32°45' W 013°42'713.9
2017-May-16 22:00N 32°52' W 013°40'713.7
2017-May-16 21:30N 32°59' W 013°38'713.6
2017-May-16 21:00N 33°05' W 013°36'713.8
2017-May-16 20:29N 33°12' W 013°34'713.8
2017-May-16 20:01N 33°19' W 013°32'713.8
2017-May-16 19:31N 33°25' W 013°30'713.9
2017-May-16 19:01N 33°32' W 013°28'  
Track history (hours):
 
Tides and Currents Weather Stations Pressure Air Temp Water Temp Dewpoint Dewpoint Depression Visibility Wind Speed Wind Dir Waves Ship Positions

Bochem Mumbai

Last reported at 2017-May-26 18:51 UTC. Time now 2017-May-27 21:19 UTC.
Position N 28°39' W 013°14'.

Length 171 m; draft 11.1 m.

Type: Ship (hazmat cat A). MMSI: 477932400.

Date/timePositionNaut miles runAvg speedWind from/ knotsBaromVisibWave heightAir tempDewpointWater temp
2017-May-26 18:51N 28°39' W 013°14'411.6
2017-May-26 18:30N 28°36' W 013°17'611.7
2017-May-26 18:00N 28°31' W 013°21'712.2
2017-May-26 17:28N 28°26' W 013°25'612.4
2017-May-26 16:59N 28°21' W 013°29'1312.2
2017-May-26 15:54N 28°10' W 013°38'511.9
2017-May-26 15:30N 28°06' W 013°41'712.1
2017-May-26 14:57N 28°01' W 013°46'512.3
2017-May-26 14:30N 27°57' W 013°50'1312.6
2017-May-26 13:29N 27°47' W 013°59'612.7
2017-May-26 12:59N 27°42' W 014°03'  
2017-May-23 14:18N 14°38' W 017°32'1011.8
2017-May-23 13:30N 14°33' W 017°24'7 9.7
2017-May-23 12:46N 14°39' W 017°23'310.1
2017-May-23 12:30N 14°42' W 017°21'1 0.3
2017-May-23 10:07N 14°43' W 017°21'0 0.0
2017-May-23 09:49N 14°43' W 017°21'0 0.0
2017-May-23 09:13N 14°43' W 017°21'0 0.0
2017-May-22 21:13N 14°43' W 017°21'0 0.0
2017-May-22 20:55N 14°43' W 017°21'0 0.0
2017-May-22 16:01N 14°43' W 017°21'0 0.0
2017-May-22 15:55N 14°43' W 017°21'0 0.0
2017-May-22 15:10N 14°43' W 017°21'0 0.0
2017-May-22 11:37N 14°43' W 017°21'0 0.0
2017-May-22 11:07N 14°43' W 017°21'0 0.0
2017-May-22 09:19N 14°43' W 017°21'0 0.0
2017-May-22 06:07N 14°43' W 017°21'0 0.0
2017-May-22 00:46N 14°43' W 017°21'0 0.0
2017-May-22 00:25N 14°43' W 017°21'0 0.0
2017-May-21 22:19N 14°43' W 017°21'0 0.0
2017-May-21 13:58N 14°43' W 017°21'0 0.0
2017-May-21 13:25N 14°43' W 017°21'0 0.0
2017-May-21 12:19N 14°43' W 017°21'0 0.0
2017-May-21 11:49N 14°43' W 017°21'0 0.0
2017-May-21 11:13N 14°43' W 017°21'0 0.0
2017-May-21 10:55N 14°43' W 017°21'0 0.0
2017-May-21 01:16N 14°43' W 017°21'0 0.0
2017-May-21 00:49N 14°43' W 017°21'0 0.0
2017-May-20 23:25N 14°43' W 017°21'0 0.0
2017-May-20 21:55N 14°43' W 017°21'0 0.0
2017-May-20 21:19N 14°43' W 017°21'0 0.0
2017-May-20 16:19N 14°43' W 017°21'0 0.0
2017-May-20 15:49N 14°43' W 017°21'0 0.0
2017-May-20 15:22N 14°43' W 017°21'0 0.0
2017-May-20 14:07N 14°43' W 017°21'0 0.0
2017-May-20 13:22N 14°43' W 017°21'0 0.0
2017-May-20 12:49N 14°43' W 017°21'0 0.2
2017-May-20 12:30N 14°43' W 017°21'0 1.0
2017-May-20 12:00N 14°42' W 017°22'2 4.7
2017-May-20 11:31N 14°40' W 017°23'2 3.9
2017-May-20 11:00N 14°39' W 017°23'3 6.1
2017-May-20 10:30N 14°36' W 017°23'5 9.8
2017-May-20 10:00N 14°34' W 017°28'  
2017-May-17 21:30N 27°39' W 015°15'814.7
2017-May-17 20:59N 27°46' W 015°12'714.8
2017-May-17 20:30N 27°52' W 015°09'714.2
2017-May-17 20:00N 27°59' W 015°05'714.1
2017-May-17 19:30N 28°05' W 015°02'714.3
2017-May-17 19:00N 28°12' W 014°60'714.2
2017-May-17 18:30N 28°19' W 014°57'714.0
2017-May-17 18:00N 28°25' W 014°55'713.8
2017-May-17 17:30N 28°32' W 014°53'713.7
2017-May-17 16:59N 28°39' W 014°51'613.5
2017-May-17 16:30N 28°45' W 014°50'713.4
2017-May-17 16:00N 28°52' W 014°48'713.5
2017-May-17 15:30N 28°58' W 014°46'713.5
2017-May-17 15:00N 29°05' W 014°44'1313.4
2017-May-17 14:01N 29°18' W 014°40'713.4
2017-May-17 13:31N 29°24' W 014°38'713.5
2017-May-17 13:00N 29°31' W 014°36'713.5
2017-May-17 12:30N 29°37' W 014°34'713.3
2017-May-17 12:00N 29°44' W 014°33'1113.4
2017-May-17 11:12N 29°54' W 014°29'313.7
2017-May-17 11:00N 29°57' W 014°29'713.6
2017-May-17 10:30N 30°03' W 014°27'713.7
2017-May-17 09:59N 30°11' W 014°24'6213.8
2017-May-17 05:30N 31°11' W 014°08'5013.9
2017-May-17 01:54N 31°59' W 013°54'614.0
2017-May-17 01:30N 32°05' W 013°52'713.9
2017-May-17 01:00N 32°12' W 013°51'714.0
2017-May-17 00:30N 32°18' W 013°49'713.7
2017-May-17 00:00N 32°25' W 013°47'713.8
2017-May-16 23:30N 32°32' W 013°46'713.8
2017-May-16 23:00N 32°39' W 013°44'713.8
2017-May-16 22:30N 32°45' W 013°42'713.9
2017-May-16 22:00N 32°52' W 013°40'713.7
2017-May-16 21:30N 32°59' W 013°38'713.6
2017-May-16 21:00N 33°05' W 013°36'713.8
2017-May-16 20:29N 33°12' W 013°34'713.8
2017-May-16 20:01N 33°19' W 013°32'713.8
2017-May-16 19:31N 33°25' W 013°30'713.9
2017-May-16 19:01N 33°32' W 013°28'  

Dump ship's entire track history